sensor_id;sensor_type;location;lat;lon;timestamp;temperature;humidity
46492;DHT22;32206;51.446;6.792;2022-08-19T00:01:56;22.30;1.00
46492;DHT22;32206;51.446;6.792;2022-08-19T00:04:25;22.10;99.90
46492;DHT22;32206;51.446;6.792;2022-08-19T00:06:51;22.10;99.90
46492;DHT22;32206;51.446;6.792;2022-08-19T00:09:19;22.00;99.90
46492;DHT22;32206;51.446;6.792;2022-08-19T00:11:45;22.00;99.90
46492;DHT22;32206;51.446;6.792;2022-08-19T00:14:13;22.00;99.90
46492;DHT22;32206;51.446;6.792;2022-08-19T00:16:42;22.00;99.90
46492;DHT22;32206;51.446;6.792;2022-08-19T00:19:09;21.90;99.90
46492;DHT22;32206;51.446;6.792;2022-08-19T00:21:34;21.90;1.00
46492;DHT22;32206;51.446;6.792;2022-08-19T00:24:06;21.90;1.00
46492;DHT22;32206;51.446;6.792;2022-08-19T00:26:32;21.90;1.00
46492;DHT22;32206;51.446;6.792;2022-08-19T00:28:58;21.80;1.00
46492;DHT22;32206;51.446;6.792;2022-08-19T00:31:25;21.80;1.00
46492;DHT22;32206;51.446;6.792;2022-08-19T00:33:53;21.80;1.00
46492;DHT22;32206;51.446;6.792;2022-08-19T00:36:19;21.70;1.00
46492;DHT22;32206;51.446;6.792;2022-08-19T00:38:46;21.80;1.00
46492;DHT22;32206;51.446;6.792;2022-08-19T00:41:16;21.70;1.00
46492;DHT22;32206;51.446;6.792;2022-08-19T00:43:43;21.70;39.30
46492;DHT22;32206;51.446;6.792;2022-08-19T00:46:09;21.60;98.80
46492;DHT22;32206;51.446;6.792;2022-08-19T00:48:36;21.60;99.90
46492;DHT22;32206;51.446;6.792;2022-08-19T00:51:02;21.60;99.90
46492;DHT22;32206;51.446;6.792;2022-08-19T00:53:29;21.50;99.90
46492;DHT22;32206;51.446;6.792;2022-08-19T00:55:58;21.50;99.90
46492;DHT22;32206;51.446;6.792;2022-08-19T00:58:28;21.50;99.90
46492;DHT22;32206;51.446;6.792;2022-08-19T01:00:54;21.50;99.90
46492;DHT22;32206;51.446;6.792;2022-08-19T01:03:21;21.50;99.90
46492;DHT22;32206;51.446;6.792;2022-08-19T01:05:48;21.50;99.90
46492;DHT22;32206;51.446;6.792;2022-08-19T01:08:16;21.40;99.90
46492;DHT22;32206;51.446;6.792;2022-08-19T01:10:46;21.40;99.90
46492;DHT22;32206;51.446;6.792;2022-08-19T01:13:15;21.40;99.90
46492;DHT22;32206;51.446;6.792;2022-08-19T01:15:44;21.30;99.90
46492;DHT22;32206;51.446;6.792;2022-08-19T01:18:13;21.40;99.90
46492;DHT22;32206;51.446;6.792;2022-08-19T01:20:41;21.30;99.90
46492;DHT22;32206;51.446;6.792;2022-08-19T01:23:07;21.30;99.90
46492;DHT22;32206;51.446;6.792;2022-08-19T01:25:44;21.20;99.90
46492;DHT22;32206;51.446;6.792;2022-08-19T01:28:20;21.20;99.90
46492;DHT22;32206;51.446;6.792;2022-08-19T01:30:47;21.20;99.90
46492;DHT22;32206;51.446;6.792;2022-08-19T01:33:14;21.10;99.90
46492;DHT22;32206;51.446;6.792;2022-08-19T01:35:41;21.00;99.90
46492;DHT22;32206;51.446;6.792;2022-08-19T01:38:16;21.00;99.90
46492;DHT22;32206;51.446;6.792;2022-08-19T01:40:44;21.10;99.90
46492;DHT22;32206;51.446;6.792;2022-08-19T01:43:10;21.10;99.90
46492;DHT22;32206;51.446;6.792;2022-08-19T01:45:36;21.00;99.90
46492;DHT22;32206;51.446;6.792;2022-08-19T01:48:06;21.00;99.90
46492;DHT22;32206;51.446;6.792;2022-08-19T01:50:33;21.00;99.90
46492;DHT22;32206;51.446;6.792;2022-08-19T01:53:01;21.00;99.90
46492;DHT22;32206;51.446;6.792;2022-08-19T01:55:27;21.00;99.90
46492;DHT22;32206;51.446;6.792;2022-08-19T01:57:56;21.00;99.90
46492;DHT22;32206;51.446;6.792;2022-08-19T02:00:24;20.90;99.90
46492;DHT22;32206;51.446;6.792;2022-08-19T02:02:52;20.90;99.90
46492;DHT22;32206;51.446;6.792;2022-08-19T02:05:18;20.90;99.90
46492;DHT22;32206;51.446;6.792;2022-08-19T02:07:46;20.90;99.90
46492;DHT22;32206;51.446;6.792;2022-08-19T02:10:15;20.90;1.00
46492;DHT22;32206;51.446;6.792;2022-08-19T02:12:41;20.80;1.00
46492;DHT22;32206;51.446;6.792;2022-08-19T02:15:07;20.80;1.00
46492;DHT22;32206;51.446;6.792;2022-08-19T02:17:33;20.80;1.00
46492;DHT22;32206;51.446;6.792;2022-08-19T02:19:58;20.80;1.00
46492;DHT22;32206;51.446;6.792;2022-08-19T02:22:25;21.10;1.00
46492;DHT22;32206;51.446;6.792;2022-08-19T02:24:55;20.80;1.00
46492;DHT22;32206;51.446;6.792;2022-08-19T02:27:22;20.80;1.00
46492;DHT22;32206;51.446;6.792;2022-08-19T02:29:49;20.80;1.00
46492;DHT22;32206;51.446;6.792;2022-08-19T02:32:16;20.80;1.00
46492;DHT22;32206;51.446;6.792;2022-08-19T02:34:42;20.80;1.00
46492;DHT22;32206;51.446;6.792;2022-08-19T02:37:07;20.70;1.00
46492;DHT22;32206;51.446;6.792;2022-08-19T02:39:56;20.70;1.00
46492;DHT22;32206;51.446;6.792;2022-08-19T02:42:21;20.70;1.00
46492;DHT22;32206;51.446;6.792;2022-08-19T02:44:47;20.70;1.00
46492;DHT22;32206;51.446;6.792;2022-08-19T02:47:13;20.70;1.00
46492;DHT22;32206;51.446;6.792;2022-08-19T02:49:40;20.70;1.00
46492;DHT22;32206;51.446;6.792;2022-08-19T02:52:06;20.60;1.00
46492;DHT22;32206;51.446;6.792;2022-08-19T02:54:32;20.60;1.00
46492;DHT22;32206;51.446;6.792;2022-08-19T02:56:57;20.60;1.00
46492;DHT22;32206;51.446;6.792;2022-08-19T02:59:24;20.60;1.00
46492;DHT22;32206;51.446;6.792;2022-08-19T03:01:52;20.60;1.00
46492;DHT22;32206;51.446;6.792;2022-08-19T03:04:18;20.50;1.00
46492;DHT22;32206;51.446;6.792;2022-08-19T03:06:46;20.50;1.00
46492;DHT22;32206;51.446;6.792;2022-08-19T03:09:13;20.50;1.00
46492;DHT22;32206;51.446;6.792;2022-08-19T03:11:39;20.50;1.00
46492;DHT22;32206;51.446;6.792;2022-08-19T03:14:06;20.40;1.00
46492;DHT22;32206;51.446;6.792;2022-08-19T03:16:44;20.40;1.00
46492;DHT22;32206;51.446;6.792;2022-08-19T03:19:09;20.40;1.00
46492;DHT22;32206;51.446;6.792;2022-08-19T03:21:35;20.30;1.00
46492;DHT22;32206;51.446;6.792;2022-08-19T03:24:05;20.30;1.00
46492;DHT22;32206;51.446;6.792;2022-08-19T03:26:32;20.30;1.00
46492;DHT22;32206;51.446;6.792;2022-08-19T03:29:03;20.30;1.00
46492;DHT22;32206;51.446;6.792;2022-08-19T03:31:29;20.30;1.00
46492;DHT22;32206;51.446;6.792;2022-08-19T03:33:55;20.30;1.00
46492;DHT22;32206;51.446;6.792;2022-08-19T03:36:24;20.30;1.00
46492;DHT22;32206;51.446;6.792;2022-08-19T03:38:52;20.20;1.00
46492;DHT22;32206;51.446;6.792;2022-08-19T03:41:22;20.20;1.00
46492;DHT22;32206;51.446;6.792;2022-08-19T03:43:48;20.30;1.00
46492;DHT22;32206;51.446;6.792;2022-08-19T03:46:17;20.30;1.00
46492;DHT22;32206;51.446;6.792;2022-08-19T03:48:46;20.20;1.00
46492;DHT22;32206;51.446;6.792;2022-08-19T03:51:25;20.20;1.00
46492;DHT22;32206;51.446;6.792;2022-08-19T03:53:53;20.20;1.00
46492;DHT22;32206;51.446;6.792;2022-08-19T03:56:19;20.30;1.00
46492;DHT22;32206;51.446;6.792;2022-08-19T03:58:44;20.20;1.00
46492;DHT22;32206;51.446;6.792;2022-08-19T04:01:13;20.20;1.00
46492;DHT22;32206;51.446;6.792;2022-08-19T04:03:40;20.20;1.00
46492;DHT22;32206;51.446;6.792;2022-08-19T04:06:14;20.20;1.00
46492;DHT22;32206;51.446;6.792;2022-08-19T04:08:41;20.20;1.00
46492;DHT22;32206;51.446;6.792;2022-08-19T04:11:15;20.20;1.00
46492;DHT22;32206;51.446;6.792;2022-08-19T04:13:41;20.30;1.00
46492;DHT22;32206;51.446;6.792;2022-08-19T04:16:10;20.20;1.00
46492;DHT22;32206;51.446;6.792;2022-08-19T04:18:37;20.10;1.00
46492;DHT22;32206;51.446;6.792;2022-08-19T04:21:04;20.20;1.00
46492;DHT22;32206;51.446;6.792;2022-08-19T04:23:30;20.10;1.00
46492;DHT22;32206;51.446;6.792;2022-08-19T04:25:57;20.10;1.00
46492;DHT22;32206;51.446;6.792;2022-08-19T04:28:23;20.10;1.00
46492;DHT22;32206;51.446;6.792;2022-08-19T04:30:51;20.10;1.00
46492;DHT22;32206;51.446;6.792;2022-08-19T04:33:20;20.00;1.00
46492;DHT22;32206;51.446;6.792;2022-08-19T04:35:47;19.90;1.00
46492;DHT22;32206;51.446;6.792;2022-08-19T04:38:15;19.90;1.00
46492;DHT22;32206;51.446;6.792;2022-08-19T04:40:43;19.90;1.00
46492;DHT22;32206;51.446;6.792;2022-08-19T04:43:28;19.90;1.00
46492;DHT22;32206;51.446;6.792;2022-08-19T04:45:54;19.90;1.00
46492;DHT22;32206;51.446;6.792;2022-08-19T04:48:20;19.80;1.00
46492;DHT22;32206;51.446;6.792;2022-08-19T04:50:52;19.80;1.00
46492;DHT22;32206;51.446;6.792;2022-08-19T04:53:24;19.80;1.00
46492;DHT22;32206;51.446;6.792;2022-08-19T04:55:50;19.80;1.00
46492;DHT22;32206;51.446;6.792;2022-08-19T04:58:16;19.80;1.00
46492;DHT22;32206;51.446;6.792;2022-08-19T05:00:42;19.80;1.00
46492;DHT22;32206;51.446;6.792;2022-08-19T05:03:09;19.80;1.00
46492;DHT22;32206;51.446;6.792;2022-08-19T05:05:39;19.80;1.00
46492;DHT22;32206;51.446;6.792;2022-08-19T05:08:05;19.80;1.00
46492;DHT22;32206;51.446;6.792;2022-08-19T05:10:35;19.70;1.00
46492;DHT22;32206;51.446;6.792;2022-08-19T05:13:01;19.80;1.00
46492;DHT22;32206;51.446;6.792;2022-08-19T05:15:28;19.70;1.00
46492;DHT22;32206;51.446;6.792;2022-08-19T05:17:53;19.70;3.60
46492;DHT22;32206;51.446;6.792;2022-08-19T05:20:38;19.70;3.50
46492;DHT22;32206;51.446;6.792;2022-08-19T05:23:23;19.70;1.10
46492;DHT22;32206;51.446;6.792;2022-08-19T05:25:49;19.70;1.00
46492;DHT22;32206;51.446;6.792;2022-08-19T05:28:16;19.80;1.00
46492;DHT22;32206;51.446;6.792;2022-08-19T05:30:41;19.70;1.00
46492;DHT22;32206;51.446;6.792;2022-08-19T05:33:10;19.70;1.00
46492;DHT22;32206;51.446;6.792;2022-08-19T05:35:38;19.70;1.20
46492;DHT22;32206;51.446;6.792;2022-08-19T05:38:05;19.70;1.00
46492;DHT22;32206;51.446;6.792;2022-08-19T05:40:35;19.70;1.00
46492;DHT22;32206;51.446;6.792;2022-08-19T05:43:04;19.60;3.10
46492;DHT22;32206;51.446;6.792;2022-08-19T05:45:30;19.60;1.00
46492;DHT22;32206;51.446;6.792;2022-08-19T05:47:56;19.60;9.50
46492;DHT22;32206;51.446;6.792;2022-08-19T05:50:24;19.70;8.50
46492;DHT22;32206;51.446;6.792;2022-08-19T05:52:50;19.60;3.70
46492;DHT22;32206;51.446;6.792;2022-08-19T05:55:16;19.60;9.70
46492;DHT22;32206;51.446;6.792;2022-08-19T05:57:42;19.60;7.70
46492;DHT22;32206;51.446;6.792;2022-08-19T06:00:08;19.70;12.90
46492;DHT22;32206;51.446;6.792;2022-08-19T06:02:36;19.60;13.70
46492;DHT22;32206;51.446;6.792;2022-08-19T06:05:03;19.60;17.40
46492;DHT22;32206;51.446;6.792;2022-08-19T06:07:29;19.70;15.10
46492;DHT22;32206;51.446;6.792;2022-08-19T06:09:55;19.70;14.40
46492;DHT22;32206;51.446;6.792;2022-08-19T06:12:20;19.70;16.20
46492;DHT22;32206;51.446;6.792;2022-08-19T06:14:56;19.80;14.50
46492;DHT22;32206;51.446;6.792;2022-08-19T06:17:21;19.80;12.30
46492;DHT22;32206;51.446;6.792;2022-08-19T06:19:50;19.80;14.90
46492;DHT22;32206;51.446;6.792;2022-08-19T06:22:15;19.90;11.30
46492;DHT22;32206;51.446;6.792;2022-08-19T06:24:41;20.00;3.00
46492;DHT22;32206;51.446;6.792;2022-08-19T06:27:07;20.00;6.50
46492;DHT22;32206;51.446;6.792;2022-08-19T06:29:33;20.00;1.00
46492;DHT22;32206;51.446;6.792;2022-08-19T06:32:01;20.00;1.60
46492;DHT22;32206;51.446;6.792;2022-08-19T06:34:30;20.10;2.50
46492;DHT22;32206;51.446;6.792;2022-08-19T06:36:58;20.20;1.00
46492;DHT22;32206;51.446;6.792;2022-08-19T06:39:30;20.20;2.40
46492;DHT22;32206;51.446;6.792;2022-08-19T06:41:59;20.30;1.00
46492;DHT22;32206;51.446;6.792;2022-08-19T06:44:28;20.40;1.00
46492;DHT22;32206;51.446;6.792;2022-08-19T06:46:54;20.40;1.00
46492;DHT22;32206;51.446;6.792;2022-08-19T06:49:21;20.50;1.00
46492;DHT22;32206;51.446;6.792;2022-08-19T06:51:48;20.60;1.00
46492;DHT22;32206;51.446;6.792;2022-08-19T06:54:15;20.60;1.00
46492;DHT22;32206;51.446;6.792;2022-08-19T06:56:41;20.60;1.00
46492;DHT22;32206;51.446;6.792;2022-08-19T06:59:14;20.60;1.00
46492;DHT22;32206;51.446;6.792;2022-08-19T07:01:43;20.60;1.00
46492;DHT22;32206;51.446;6.792;2022-08-19T07:04:13;20.70;1.00
46492;DHT22;32206;51.446;6.792;2022-08-19T07:06:41;20.70;1.00
46492;DHT22;32206;51.446;6.792;2022-08-19T07:09:08;20.70;1.00
46492;DHT22;32206;51.446;6.792;2022-08-19T07:11:34;20.70;1.00
46492;DHT22;32206;51.446;6.792;2022-08-19T07:14:01;20.80;1.00
46492;DHT22;32206;51.446;6.792;2022-08-19T07:16:27;20.80;1.00
46492;DHT22;32206;51.446;6.792;2022-08-19T07:18:53;20.80;1.00
46492;DHT22;32206;51.446;6.792;2022-08-19T07:21:23;20.80;1.00
46492;DHT22;32206;51.446;6.792;2022-08-19T07:23:50;20.90;1.00
46492;DHT22;32206;51.446;6.792;2022-08-19T07:26:40;20.90;1.00
46492;DHT22;32206;51.446;6.792;2022-08-19T07:29:06;20.90;1.00
46492;DHT22;32206;51.446;6.792;2022-08-19T07:31:32;20.90;1.00
46492;DHT22;32206;51.446;6.792;2022-08-19T07:34:04;21.10;1.00
46492;DHT22;32206;51.446;6.792;2022-08-19T07:36:37;21.10;1.00
46492;DHT22;32206;51.446;6.792;2022-08-19T07:39:07;21.10;1.00
46492;DHT22;32206;51.446;6.792;2022-08-19T07:41:35;21.10;1.00
46492;DHT22;32206;51.446;6.792;2022-08-19T07:44:03;21.10;1.00
46492;DHT22;32206;51.446;6.792;2022-08-19T07:46:31;21.10;1.00
46492;DHT22;32206;51.446;6.792;2022-08-19T07:48:57;21.20;1.00
46492;DHT22;32206;51.446;6.792;2022-08-19T07:51:23;21.20;1.00
46492;DHT22;32206;51.446;6.792;2022-08-19T07:53:50;21.30;1.00
46492;DHT22;32206;51.446;6.792;2022-08-19T07:56:17;21.40;1.00
46492;DHT22;32206;51.446;6.792;2022-08-19T07:58:45;21.50;1.00
46492;DHT22;32206;51.446;6.792;2022-08-19T08:01:15;21.60;1.00
46492;DHT22;32206;51.446;6.792;2022-08-19T08:03:41;21.60;1.00
46492;DHT22;32206;51.446;6.792;2022-08-19T08:06:26;21.70;1.00
46492;DHT22;32206;51.446;6.792;2022-08-19T08:09:10;21.80;1.00
46492;DHT22;32206;51.446;6.792;2022-08-19T08:11:45;21.90;1.00
46492;DHT22;32206;51.446;6.792;2022-08-19T08:14:28;21.90;1.00
46492;DHT22;32206;51.446;6.792;2022-08-19T08:16:56;21.90;1.00
46492;DHT22;32206;51.446;6.792;2022-08-19T08:19:24;22.00;1.00
46492;DHT22;32206;51.446;6.792;2022-08-19T08:21:51;22.10;1.00
46492;DHT22;32206;51.446;6.792;2022-08-19T08:24:17;22.20;99.90
46492;DHT22;32206;51.446;6.792;2022-08-19T08:26:43;22.30;99.90
46492;DHT22;32206;51.446;6.792;2022-08-19T08:29:10;22.40;99.90
46492;DHT22;32206;51.446;6.792;2022-08-19T08:31:37;22.40;99.90
46492;DHT22;32206;51.446;6.792;2022-08-19T08:34:02;22.40;99.90
46492;DHT22;32206;51.446;6.792;2022-08-19T08:36:28;22.40;99.90
46492;DHT22;32206;51.446;6.792;2022-08-19T08:38:54;22.50;1.00
46492;DHT22;32206;51.446;6.792;2022-08-19T08:41:34;22.50;1.00
46492;DHT22;32206;51.446;6.792;2022-08-19T08:44:03;22.60;1.00
46492;DHT22;32206;51.446;6.792;2022-08-19T08:49:04;22.70;1.00
46492;DHT22;32206;51.446;6.792;2022-08-19T08:51:46;22.70;99.90
46492;DHT22;32206;51.446;6.792;2022-08-19T08:54:14;22.70;99.90
46492;DHT22;32206;51.446;6.792;2022-08-19T08:56:43;22.80;99.90
46492;DHT22;32206;51.446;6.792;2022-08-19T08:59:19;22.80;1.00
46492;DHT22;32206;51.446;6.792;2022-08-19T09:01:45;22.80;99.90
46492;DHT22;32206;51.446;6.792;2022-08-19T09:04:12;22.90;1.00
46492;DHT22;32206;51.446;6.792;2022-08-19T09:06:56;23.00;99.90
46492;DHT22;32206;51.446;6.792;2022-08-19T09:12:39;23.20;1.00
46492;DHT22;32206;51.446;6.792;2022-08-19T09:15:09;23.30;99.90
46492;DHT22;32206;51.446;6.792;2022-08-19T09:17:36;23.40;1.00
46492;DHT22;32206;51.446;6.792;2022-08-19T09:20:14;23.60;7.30
46492;DHT22;32206;51.446;6.792;2022-08-19T09:22:42;23.70;1.00
46492;DHT22;32206;51.446;6.792;2022-08-19T09:25:10;23.60;99.90
46492;DHT22;32206;51.446;6.792;2022-08-19T09:27:38;23.60;99.90
46492;DHT22;32206;51.446;6.792;2022-08-19T09:30:05;23.60;99.90
46492;DHT22;32206;51.446;6.792;2022-08-19T09:32:33;23.70;99.90
46492;DHT22;32206;51.446;6.792;2022-08-19T09:34:59;23.80;54.10
46492;DHT22;32206;51.446;6.792;2022-08-19T09:37:26;23.90;1.00
46492;DHT22;32206;51.446;6.792;2022-08-19T09:39:52;24.00;99.90
46492;DHT22;32206;51.446;6.792;2022-08-19T09:42:18;24.00;99.90
46492;DHT22;32206;51.446;6.792;2022-08-19T09:44:44;24.00;99.90
46492;DHT22;32206;51.446;6.792;2022-08-19T09:47:11;24.00;99.90
46492;DHT22;32206;51.446;6.792;2022-08-19T09:49:37;24.00;99.90
46492;DHT22;32206;51.446;6.792;2022-08-19T09:52:04;24.10;99.90
46492;DHT22;32206;51.446;6.792;2022-08-19T09:54:30;24.10;96.40
46492;DHT22;32206;51.446;6.792;2022-08-19T09:56:58;24.20;99.90
46492;DHT22;32206;51.446;6.792;2022-08-19T09:59:26;24.10;99.90
46492;DHT22;32206;51.446;6.792;2022-08-19T10:01:52;24.10;99.90
46492;DHT22;32206;51.446;6.792;2022-08-19T10:04:18;24.10;99.90
46492;DHT22;32206;51.446;6.792;2022-08-19T10:06:47;24.20;1.00
46492;DHT22;32206;51.446;6.792;2022-08-19T10:09:15;24.20;99.90
46492;DHT22;32206;51.446;6.792;2022-08-19T10:11:43;24.10;99.90
46492;DHT22;32206;51.446;6.792;2022-08-19T10:14:14;24.20;99.90
46492;DHT22;32206;51.446;6.792;2022-08-19T10:16:40;24.40;99.90
46492;DHT22;32206;51.446;6.792;2022-08-19T10:19:07;24.40;99.90
46492;DHT22;32206;51.446;6.792;2022-08-19T10:21:34;24.50;99.90
46492;DHT22;32206;51.446;6.792;2022-08-19T10:24:03;24.60;99.90
46492;DHT22;32206;51.446;6.792;2022-08-19T10:26:33;24.60;99.90
46492;DHT22;32206;51.446;6.792;2022-08-19T10:28:59;24.70;99.90
46492;DHT22;32206;51.446;6.792;2022-08-19T10:31:30;24.70;24.70
46492;DHT22;32206;51.446;6.792;2022-08-19T10:33:57;24.80;1.00
46492;DHT22;32206;51.446;6.792;2022-08-19T10:36:34;24.90;99.90
46492;DHT22;32206;51.446;6.792;2022-08-19T10:39:05;24.90;99.90
46492;DHT22;32206;51.446;6.792;2022-08-19T10:41:33;25.00;99.90
46492;DHT22;32206;51.446;6.792;2022-08-19T10:44:03;25.20;99.90
46492;DHT22;32206;51.446;6.792;2022-08-19T10:46:29;25.20;99.90
46492;DHT22;32206;51.446;6.792;2022-08-19T10:48:58;25.20;99.90
46492;DHT22;32206;51.446;6.792;2022-08-19T10:51:24;25.10;99.90
46492;DHT22;32206;51.446;6.792;2022-08-19T10:54:09;25.10;99.90
46492;DHT22;32206;51.446;6.792;2022-08-19T10:56:35;25.10;99.90
46492;DHT22;32206;51.446;6.792;2022-08-19T10:59:21;25.20;99.90
46492;DHT22;32206;51.446;6.792;2022-08-19T11:01:49;25.20;99.90
46492;DHT22;32206;51.446;6.792;2022-08-19T11:04:15;25.30;66.10
46492;DHT22;32206;51.446;6.792;2022-08-19T11:06:47;25.30;25.60
46492;DHT22;32206;51.446;6.792;2022-08-19T11:09:16;25.50;1.00
46492;DHT22;32206;51.446;6.792;2022-08-19T11:11:43;25.60;1.00
46492;DHT22;32206;51.446;6.792;2022-08-19T11:14:14;25.80;1.00
46492;DHT22;32206;51.446;6.792;2022-08-19T11:16:41;25.90;1.00
46492;DHT22;32206;51.446;6.792;2022-08-19T11:19:09;26.00;1.00
46492;DHT22;32206;51.446;6.792;2022-08-19T11:21:46;26.00;1.00
46492;DHT22;32206;51.446;6.792;2022-08-19T11:24:19;26.00;1.00
46492;DHT22;32206;51.446;6.792;2022-08-19T11:26:46;26.00;1.00
46492;DHT22;32206;51.446;6.792;2022-08-19T11:29:13;25.90;1.00
46492;DHT22;32206;51.446;6.792;2022-08-19T11:31:45;26.00;99.90
46492;DHT22;32206;51.446;6.792;2022-08-19T11:34:15;26.00;99.90
46492;DHT22;32206;51.446;6.792;2022-08-19T11:36:44;25.90;99.90
46492;DHT22;32206;51.446;6.792;2022-08-19T11:39:12;25.90;1.00
46492;DHT22;32206;51.446;6.792;2022-08-19T11:41:37;26.10;99.90
46492;DHT22;32206;51.446;6.792;2022-08-19T11:44:04;26.20;99.90
46492;DHT22;32206;51.446;6.792;2022-08-19T11:46:30;26.10;99.90
46492;DHT22;32206;51.446;6.792;2022-08-19T11:48:57;26.10;1.00
46492;DHT22;32206;51.446;6.792;2022-08-19T11:51:24;26.10;99.90
46492;DHT22;32206;51.446;6.792;2022-08-19T11:53:52;26.20;99.90
46492;DHT22;32206;51.446;6.792;2022-08-19T11:56:19;26.30;99.90
46492;DHT22;32206;51.446;6.792;2022-08-19T11:58:45;26.30;99.90
46492;DHT22;32206;51.446;6.792;2022-08-19T12:01:14;26.50;99.90
46492;DHT22;32206;51.446;6.792;2022-08-19T12:03:42;26.60;99.90
46492;DHT22;32206;51.446;6.792;2022-08-19T12:06:11;26.80;99.90
46492;DHT22;32206;51.446;6.792;2022-08-19T12:08:41;26.90;99.90
46492;DHT22;32206;51.446;6.792;2022-08-19T12:11:08;27.00;99.90
46492;DHT22;32206;51.446;6.792;2022-08-19T12:13:35;27.10;99.90
46492;DHT22;32206;51.446;6.792;2022-08-19T12:16:08;27.10;99.90
46492;DHT22;32206;51.446;6.792;2022-08-19T12:18:36;27.10;99.90
46492;DHT22;32206;51.446;6.792;2022-08-19T12:21:03;27.20;99.90
46492;DHT22;32206;51.446;6.792;2022-08-19T12:23:29;27.30;99.90
46492;DHT22;32206;51.446;6.792;2022-08-19T12:25:54;27.20;99.90
46492;DHT22;32206;51.446;6.792;2022-08-19T12:28:23;27.30;99.90
46492;DHT22;32206;51.446;6.792;2022-08-19T12:30:50;27.30;99.90
46492;DHT22;32206;51.446;6.792;2022-08-19T12:33:17;27.30;99.90
46492;DHT22;32206;51.446;6.792;2022-08-19T12:35:45;27.40;99.90
46492;DHT22;32206;51.446;6.792;2022-08-19T12:38:13;27.40;99.90
46492;DHT22;32206;51.446;6.792;2022-08-19T12:40:38;27.50;99.90
46492;DHT22;32206;51.446;6.792;2022-08-19T12:43:06;27.60;99.90
46492;DHT22;32206;51.446;6.792;2022-08-19T12:45:33;27.60;99.90
46492;DHT22;32206;51.446;6.792;2022-08-19T12:47:59;27.80;99.90
46492;DHT22;32206;51.446;6.792;2022-08-19T12:50:25;27.90;99.90
46492;DHT22;32206;51.446;6.792;2022-08-19T12:52:50;28.00;99.90
46492;DHT22;32206;51.446;6.792;2022-08-19T12:55:17;28.20;99.90
46492;DHT22;32206;51.446;6.792;2022-08-19T12:57:44;28.30;99.90
46492;DHT22;32206;51.446;6.792;2022-08-19T13:00:14;28.40;99.90
46492;DHT22;32206;51.446;6.792;2022-08-19T13:02:42;28.50;99.90
46492;DHT22;32206;51.446;6.792;2022-08-19T13:05:12;28.60;99.90
46492;DHT22;32206;51.446;6.792;2022-08-19T13:07:39;28.60;99.90
46492;DHT22;32206;51.446;6.792;2022-08-19T13:10:10;28.70;99.90
46492;DHT22;32206;51.446;6.792;2022-08-19T13:12:37;28.80;99.90
46492;DHT22;32206;51.446;6.792;2022-08-19T13:15:03;28.90;99.90
46492;DHT22;32206;51.446;6.792;2022-08-19T13:17:35;28.90;99.90
46492;DHT22;32206;51.446;6.792;2022-08-19T13:20:02;28.90;99.90
46492;DHT22;32206;51.446;6.792;2022-08-19T13:22:28;28.90;99.90
46492;DHT22;32206;51.446;6.792;2022-08-19T13:24:54;29.00;99.90
46492;DHT22;32206;51.446;6.792;2022-08-19T13:27:19;29.00;99.90
46492;DHT22;32206;51.446;6.792;2022-08-19T13:29:45;29.10;99.90
46492;DHT22;32206;51.446;6.792;2022-08-19T13:32:29;29.10;99.90
46492;DHT22;32206;51.446;6.792;2022-08-19T13:35:14;29.10;99.90
46492;DHT22;32206;51.446;6.792;2022-08-19T13:37:40;29.10;99.90
46492;DHT22;32206;51.446;6.792;2022-08-19T13:42:39;29.20;99.90
46492;DHT22;32206;51.446;6.792;2022-08-19T13:45:06;29.20;99.90
46492;DHT22;32206;51.446;6.792;2022-08-19T13:47:33;29.20;99.90
46492;DHT22;32206;51.446;6.792;2022-08-19T13:50:11;29.00;99.90
46492;DHT22;32206;51.446;6.792;2022-08-19T13:52:39;29.00;99.90
46492;DHT22;32206;51.446;6.792;2022-08-19T13:55:05;29.00;99.90
46492;DHT22;32206;51.446;6.792;2022-08-19T13:57:31;29.10;99.90
46492;DHT22;32206;51.446;6.792;2022-08-19T13:59:58;29.10;99.90
46492;DHT22;32206;51.446;6.792;2022-08-19T14:02:24;29.10;99.90
46492;DHT22;32206;51.446;6.792;2022-08-19T14:04:49;29.10;99.90
46492;DHT22;32206;51.446;6.792;2022-08-19T14:07:15;29.00;99.90
46492;DHT22;32206;51.446;6.792;2022-08-19T14:09:41;29.00;99.90
46492;DHT22;32206;51.446;6.792;2022-08-19T14:12:07;29.00;99.90
46492;DHT22;32206;51.446;6.792;2022-08-19T14:14:37;29.00;99.90
46492;DHT22;32206;51.446;6.792;2022-08-19T14:17:06;29.10;99.90
46492;DHT22;32206;51.446;6.792;2022-08-19T14:19:31;29.10;99.90
46492;DHT22;32206;51.446;6.792;2022-08-19T14:21:57;29.10;99.90
46492;DHT22;32206;51.446;6.792;2022-08-19T14:24:23;29.10;99.90
46492;DHT22;32206;51.446;6.792;2022-08-19T14:26:48;29.10;99.90
46492;DHT22;32206;51.446;6.792;2022-08-19T14:29:14;29.00;99.90
46492;DHT22;32206;51.446;6.792;2022-08-19T14:31:39;29.00;99.90
46492;DHT22;32206;51.446;6.792;2022-08-19T14:34:06;28.90;99.90
46492;DHT22;32206;51.446;6.792;2022-08-19T14:36:31;29.00;99.90
46492;DHT22;32206;51.446;6.792;2022-08-19T14:38:59;29.00;99.90
46492;DHT22;32206;51.446;6.792;2022-08-19T14:41:27;28.90;99.90
46492;DHT22;32206;51.446;6.792;2022-08-19T14:43:53;28.90;99.90
46492;DHT22;32206;51.446;6.792;2022-08-19T14:46:24;28.90;99.90
46492;DHT22;32206;51.446;6.792;2022-08-19T14:48:51;29.00;99.90
46492;DHT22;32206;51.446;6.792;2022-08-19T14:51:17;28.90;99.90
46492;DHT22;32206;51.446;6.792;2022-08-19T14:53:44;28.90;99.90
46492;DHT22;32206;51.446;6.792;2022-08-19T14:56:13;28.70;99.90
46492;DHT22;32206;51.446;6.792;2022-08-19T14:58:40;28.60;99.90
46492;DHT22;32206;51.446;6.792;2022-08-19T15:01:06;28.70;99.90
46492;DHT22;32206;51.446;6.792;2022-08-19T15:03:32;28.80;99.90
46492;DHT22;32206;51.446;6.792;2022-08-19T15:06:00;28.80;99.90
46492;DHT22;32206;51.446;6.792;2022-08-19T15:08:26;28.80;99.90
46492;DHT22;32206;51.446;6.792;2022-08-19T15:10:52;28.90;99.90
46492;DHT22;32206;51.446;6.792;2022-08-19T15:13:18;28.90;99.90
46492;DHT22;32206;51.446;6.792;2022-08-19T15:15:44;28.90;99.90
46492;DHT22;32206;51.446;6.792;2022-08-19T15:18:10;28.80;99.90
46492;DHT22;32206;51.446;6.792;2022-08-19T15:20:37;28.80;99.90
46492;DHT22;32206;51.446;6.792;2022-08-19T15:23:03;28.90;99.90
46492;DHT22;32206;51.446;6.792;2022-08-19T15:25:29;28.90;99.90
46492;DHT22;32206;51.446;6.792;2022-08-19T15:27:55;28.80;99.90
46492;DHT22;32206;51.446;6.792;2022-08-19T15:30:25;28.80;99.90
46492;DHT22;32206;51.446;6.792;2022-08-19T15:32:53;29.00;99.90
46492;DHT22;32206;51.446;6.792;2022-08-19T15:35:20;28.80;99.90
46492;DHT22;32206;51.446;6.792;2022-08-19T15:37:51;28.80;99.90
46492;DHT22;32206;51.446;6.792;2022-08-19T15:40:18;28.80;99.90
46492;DHT22;32206;51.446;6.792;2022-08-19T15:42:44;29.00;99.90
46492;DHT22;32206;51.446;6.792;2022-08-19T15:45:12;29.00;99.90
46492;DHT22;32206;51.446;6.792;2022-08-19T15:47:38;29.00;99.90
46492;DHT22;32206;51.446;6.792;2022-08-19T15:52:30;28.90;99.90
46492;DHT22;32206;51.446;6.792;2022-08-19T15:54:56;28.80;99.90